Airfield :
LOGIN :

Register | Disclaimer

   EN    FR    IT 

 










Legend :    VFR   Marginal VFR   IFR   Intensive IFR   Very Intensive IFR
Visi :
Ceiling :
>= 8 km
>= 3000ft
5 to 8 km
1000 to 3000 ft
1500m to 5 km
500 to 1000 ft
800 to 1500m
200 to 500 ft
< 800m
< 200 ft
Symbols :   Thunderstorms  Fog  Heavy snow  Heavy precipitations  Wind > 20 kt
SIGMETs :     Misc.  Thunderstorms  Icing  Turbulence  Mountain Waves  Volcanic Ashes






- Airport Elevation : 778 ft
- IATA code : BRQ


LKTB - Brno-Turany

CURRENT METAR :
  • 251100Z 11007KT 3500 -DZ BR OVC005 01/01 Q1025 NOSIG

EXPIRED METARs :
  • 251030Z 12006KT 3200 -DZ BR BKN005 OVC008 01/00 Q1025 NOSIG
  • 251000Z 13006KT 3200 -DZ BR OVC006 00/00 Q1025 NOSIG
  • 250930Z 12005KT 2500 -DZ BR OVC005 00/00 Q1026 BECMG 3000 BR
  • 250912Z 13006KT 2200 -DZ BR OVC005 00/00 Q1026 RMK REG QNH 1018
  • 250900Z 13006KT 2000 -DZ BR OVC003 00/00 Q1025 REFZDZ NOSIG
  • 250830Z 13006KT 1500 -FZDZ BR OVC002 00/M00 Q1025 NOSIG

TAF TAF LKTB
Valid from the 25 at 06:00 until the 26 at 12:00 UTC


250500Z 2506/2612 13006KT 2000 BR OVC002
TEMPO 2506/2508 1200 BR
PROB30
TEMPO 2506/2507 0500 FZFG OVC001
BECMG 2508/2510 4000 BR BKN004
TEMPO 2510/2600 7000 BKN006
TEMPO 2600/2608 2000 BR OVC002
PROB30
TEMPO 2600/2608 1200 BR
TEMPO 2608/2612 7000 BKN006



MET'MAP, your aeronautical weather chart ! - Copyright ORBIFLY December 2007 - Disclaimer

ORBIFLY MET'MAP TEAM :

Programming & Development : Alexandra Zaïnal
Concept & original design : Baudouin d'Aumeries
Assistance for programming : Marc-Olivier Méhu
Technical & hardware support : Manuel Goepfert

Contact : metmap@orbifly.com




SOURCES & CREDITS :

   NOAA